Main page
METAR-TAF:

METAR-TAF

Airports :

Tuscaloosa Regional Airport

Tuscaloosa, Alabama, United States

latitude: 33-12-43N, longitude: 087-36-57W, elevation: 171 ft

Current weather observation

The report was made 31 minutes ago, at 02:53 UTC
Calm wind
Temperature 70°F
Humidity 73%
Pressure 30.06 in. Hg
Visibility: 10 miles
Clear sky

METAR: KTCL 290253Z AUTO 00000KT 10SM CLR 21/16 A3006 RMK AO2 SLP175 T02110161 53001

Time: 22:24 (03:24 UTC)

Forecast

The report was made 3 hours and 44 minutes ago, at 23:40 UTC
Forecast valid from 29 at 00 UTC to 29 at 24 UTC
Wind 7 mph from the Northwest
Visibility: 6 miles
Scattered clouds at a height of 25000 ft
From 29 at 0100 UTC
Wind 3 mph from variable directions
Visibility: 6 miles
Scattered clouds at a height of 25000 ft

TAF: KTCL 282340Z 2900/2924 32006KT P6SM SCT250 FM290100 VRB03KT P6SM SCT250

Weather observations and forecasts of more than 4000 airports (METAR and TAF reports).

The available stations are represented by yellow and red dots on the map.

Hover mouse over dot to see the name of the station.

Then click to see weather observations and forecasts.

To change the map : click on the green buttons with a black cross to zoom in, on the green button with a dash to zoom out, or on the green arrows for adjacent maps.


METAR-TAF: